FFT2499 KPHL-KPBI
Flight info
| Callsign | FFT2499 |
|---|---|
| Flight time | 2h 12m |
| Altitude | 38000 |
| Route | OOD TEBEE HAYDO TRPOD Q409 CRPLR EARZZ Q131 WAALT Y289 DULEE CLMNT2 |
| Aircraft | A20N/M-SDE2E3FGHIRWXY/LB1 |
Departure
| Time | 2026-04-25 18:41 |
|---|---|
| Airport | Philadelphia International Airport (KPHL) |
Arrival
| Time | 2026-04-25 20:54 |
|---|---|
| Airport | Palm Beach International Airport (KPBI) |
| Time | Latitude | Longitude | Altitude | Speed | Heading |
|---|---|---|---|---|---|
| 2026-04-25 18:16 | 39.87833 | -75.23675 | 11 ft | 0 kts | 200° |
| 2026-04-25 18:19 | 39.87833 | -75.23676 | 11 ft | 0 kts | 200° |
| 2026-04-25 18:19 | 39.87833 | -75.23675 | 11 ft | 0 kts | 200° |
| 2026-04-25 18:32 | 39.87836 | -75.23674 | 11 ft | 2 kts | 200° |
| 2026-04-25 18:32 | 39.87851 | -75.23666 | 11 ft | 1 kts | 201° |
| 2026-04-25 18:32 | 39.87861 | -75.23662 | 11 ft | 2 kts | 188° |
| 2026-04-25 18:32 | 39.87875 | -75.23663 | 11 ft | 2 kts | 164° |
| 2026-04-25 18:33 | 39.87889 | -75.23671 | 11 ft | 2 kts | 141° |
| 2026-04-25 18:33 | 39.87899 | -75.23686 | 11 ft | 2 kts | 118° |
| 2026-04-25 18:33 | 39.87902 | -75.23695 | 11 ft | 1 kts | 105° |
| 2026-04-25 18:33 | 39.87903 | -75.23700 | 11 ft | 0 kts | 108° |
| 2026-04-25 18:36 | 39.87897 | -75.23678 | 11 ft | 8 kts | 109° |
| 2026-04-25 18:36 | 39.87865 | -75.23560 | 11 ft | 18 kts | 110° |
| 2026-04-25 18:36 | 39.87767 | -75.23491 | 11 ft | 17 kts | 198° |
| 2026-04-25 18:36 | 39.87640 | -75.23548 | 11 ft | 23 kts | 199° |
| 2026-04-25 18:37 | 39.87487 | -75.23662 | 11 ft | 25 kts | 225° |
| 2026-04-25 18:37 | 39.87402 | -75.23852 | 11 ft | 24 kts | 253° |
| 2026-04-25 18:37 | 39.87351 | -75.24088 | 11 ft | 30 kts | 255° |
| 2026-04-25 18:37 | 39.87268 | -75.24203 | 11 ft | 16 kts | 222° |
| 2026-04-25 18:38 | 39.87230 | -75.24342 | 11 ft | 20 kts | 256° |
| 2026-04-25 18:38 | 39.87185 | -75.24557 | 11 ft | 28 kts | 255° |
| 2026-04-25 18:38 | 39.87129 | -75.24837 | 14 ft | 35 kts | 256° |
| 2026-04-25 18:38 | 39.87070 | -75.25137 | 17 ft | 33 kts | 256° |
| 2026-04-25 18:39 | 39.87014 | -75.25419 | 17 ft | 31 kts | 255° |
| 2026-04-25 18:39 | 39.86980 | -75.25559 | 18 ft | 4 kts | 227° |
| 2026-04-25 18:39 | 39.86979 | -75.25562 | 18 ft | 0 kts | 224° |
| 2026-04-25 18:39 | 39.86974 | -75.25565 | 19 ft | 1 kts | 213° |
| 2026-04-25 18:40 | 39.86948 | -75.25576 | 19 ft | 8 kts | 182° |
| 2026-04-25 18:40 | 39.86887 | -75.25518 | 18 ft | 13 kts | 101° |
| 2026-04-25 18:40 | 39.86904 | -75.25399 | 17 ft | 16 kts | 75° |
| 2026-04-25 18:40 | 39.86988 | -75.24972 | 17 ft | 83 kts | 76° |
| 2026-04-25 18:41 | 39.87183 | -75.24004 | 12 ft | 139 kts | 78° |
| 2026-04-25 18:41 | 39.87449 | -75.22725 | 420 ft | 150 kts | 78° |
| 2026-04-25 18:41 | 39.87720 | -75.21478 | 1014 ft | 149 kts | 89° |
| 2026-04-25 18:41 | 39.87366 | -75.20320 | 1613 ft | 145 kts | 138° |
| 2026-04-25 18:42 | 39.86423 | -75.19823 | 2047 ft | 161 kts | 171° |
| 2026-04-25 18:42 | 39.86040 | -75.19844 | 2151 ft | 171 kts | 183° |
| 2026-04-25 18:42 | 39.83989 | -75.20819 | 2726 ft | 204 kts | 194° |
| 2026-04-25 18:42 | 39.82593 | -75.21484 | 3084 ft | 225 kts | 195° |
| 2026-04-25 18:43 | 39.81062 | -75.22199 | 3541 ft | 243 kts | 195° |
| 2026-04-25 18:43 | 39.79446 | -75.22952 | 4172 ft | 253 kts | 197° |
| 2026-04-25 18:43 | 39.77809 | -75.23714 | 5042 ft | 254 kts | 199° |
| 2026-04-25 18:43 | 39.76138 | -75.24489 | 5925 ft | 255 kts | 200° |
| 2026-04-25 18:44 | 39.74500 | -75.25250 | 6751 ft | 257 kts | 202° |
| 2026-04-25 18:44 | 39.72823 | -75.26033 | 7574 ft | 260 kts | 202° |
| 2026-04-25 18:44 | 39.71132 | -75.26823 | 8338 ft | 264 kts | 203° |
| 2026-04-25 18:44 | 39.69386 | -75.27637 | 9096 ft | 269 kts | 204° |
| 2026-04-25 18:45 | 39.67639 | -75.28447 | 9822 ft | 273 kts | 204° |
| 2026-04-25 18:45 | 39.65843 | -75.29280 | 10515 ft | 279 kts | 204° |
| 2026-04-25 18:45 | 39.63955 | -75.30046 | 10897 ft | 298 kts | 200° |
| 2026-04-25 18:45 | 39.61867 | -75.30644 | 11255 ft | 317 kts | 194° |
| 2026-04-25 18:46 | 39.59700 | -75.31059 | 11850 ft | 325 kts | 193° |
| 2026-04-25 18:46 | 39.57467 | -75.31454 | 12550 ft | 328 kts | 193° |
| 2026-04-25 18:46 | 39.55180 | -75.31856 | 13225 ft | 333 kts | 193° |
| 2026-04-25 18:46 | 39.52924 | -75.32259 | 13866 ft | 337 kts | 193° |
| 2026-04-25 18:47 | 39.50591 | -75.32679 | 14509 ft | 341 kts | 193° |
| 2026-04-25 18:47 | 39.48264 | -75.33100 | 15132 ft | 345 kts | 193° |
| 2026-04-25 18:47 | 39.45880 | -75.33532 | 15738 ft | 349 kts | 193° |
| 2026-04-25 18:47 | 39.43473 | -75.33968 | 16321 ft | 354 kts | 193° |
| 2026-04-25 18:48 | 39.41063 | -75.34406 | 16887 ft | 358 kts | 193° |
| 2026-04-25 18:48 | 39.38605 | -75.34849 | 17440 ft | 362 kts | 193° |
| 2026-04-25 18:48 | 39.36104 | -75.35300 | 18008 ft | 366 kts | 193° |
| 2026-04-25 18:48 | 39.33614 | -75.35749 | 18548 ft | 369 kts | 193° |
| 2026-04-25 18:49 | 39.31069 | -75.36208 | 19121 ft | 372 kts | 193° |
| 2026-04-25 18:49 | 39.28492 | -75.36668 | 19673 ft | 375 kts | 193° |
| 2026-04-25 18:49 | 39.25920 | -75.37129 | 20218 ft | 378 kts | 193° |
| 2026-04-25 18:49 | 39.23317 | -75.37598 | 20751 ft | 380 kts | 193° |
| 2026-04-25 18:50 | 39.20685 | -75.38070 | 21278 ft | 383 kts | 193° |
| 2026-04-25 18:50 | 39.18080 | -75.38538 | 21800 ft | 384 kts | 193° |
| 2026-04-25 18:50 | 39.15424 | -75.39014 | 22298 ft | 387 kts | 193° |
| 2026-04-25 18:50 | 39.12734 | -75.39494 | 22765 ft | 390 kts | 193° |
| 2026-04-25 18:51 | 39.10050 | -75.39973 | 23222 ft | 393 kts | 193° |
| 2026-04-25 18:51 | 39.09160 | -75.40132 | 23373 ft | 394 kts | 193° |
| 2026-04-25 18:51 | 39.04614 | -75.40942 | 24169 ft | 398 kts | 193° |
| 2026-04-25 18:51 | 39.01878 | -75.41428 | 24621 ft | 400 kts | 193° |
| 2026-04-25 18:52 | 38.99117 | -75.41917 | 25083 ft | 402 kts | 193° |
| 2026-04-25 18:52 | 38.96343 | -75.42409 | 25533 ft | 404 kts | 193° |
| 2026-04-25 18:52 | 38.93545 | -75.42905 | 25965 ft | 407 kts | 193° |
| 2026-04-25 18:52 | 38.90745 | -75.43403 | 26367 ft | 409 kts | 193° |
| 2026-04-25 18:53 | 38.87893 | -75.43909 | 26748 ft | 412 kts | 193° |
| 2026-04-25 18:53 | 38.85071 | -75.44406 | 27124 ft | 414 kts | 193° |
| 2026-04-25 18:53 | 38.82188 | -75.44916 | 27498 ft | 417 kts | 193° |
| 2026-04-25 18:53 | 38.79342 | -75.45418 | 27862 ft | 419 kts | 193° |
| 2026-04-25 18:54 | 38.73537 | -75.46442 | 28565 ft | 423 kts | 193° |
| 2026-04-25 18:54 | 38.70634 | -75.46954 | 28888 ft | 426 kts | 193° |
| 2026-04-25 18:54 | 38.67710 | -75.47469 | 29193 ft | 428 kts | 193° |
| 2026-04-25 18:55 | 38.64760 | -75.47988 | 29521 ft | 430 kts | 193° |
| 2026-04-25 18:55 | 38.61772 | -75.48513 | 29866 ft | 432 kts | 194° |
| 2026-04-25 18:55 | 38.58802 | -75.49036 | 30147 ft | 434 kts | 193° |
| 2026-04-25 18:55 | 38.55823 | -75.49559 | 30415 ft | 437 kts | 193° |
| 2026-04-25 18:56 | 38.52794 | -75.50090 | 30715 ft | 438 kts | 193° |
| 2026-04-25 18:56 | 38.49785 | -75.50616 | 30983 ft | 440 kts | 193° |
| 2026-04-25 18:56 | 38.46762 | -75.51145 | 31286 ft | 441 kts | 193° |
| 2026-04-25 18:56 | 38.43764 | -75.51669 | 31674 ft | 440 kts | 194° |
| 2026-04-25 18:57 | 38.40785 | -75.52282 | 32037 ft | 436 kts | 197° |
| 2026-04-25 18:57 | 38.37838 | -75.53174 | 32368 ft | 432 kts | 201° |
| 2026-04-25 18:57 | 38.35003 | -75.54327 | 32679 ft | 429 kts | 206° |
| 2026-04-25 18:58 | 38.29639 | -75.57391 | 33258 ft | 422 kts | 214° |
| 2026-04-25 18:58 | 38.25409 | -75.60744 | 33760 ft | 417 kts | 220° |
| 2026-04-25 18:58 | 38.23495 | -75.62415 | 34003 ft | 416 kts | 220° |
| 2026-04-25 18:59 | 38.13382 | -75.71239 | 35202 ft | 415 kts | 220° |
| 2026-04-25 19:00 | 38.08582 | -75.75404 | 35806 ft | 413 kts | 220° |
| 2026-04-25 19:00 | 38.06196 | -75.77473 | 36053 ft | 412 kts | 220° |
| 2026-04-25 19:01 | 38.01480 | -75.81555 | 36525 ft | 411 kts | 220° |
| 2026-04-25 19:01 | 37.99123 | -75.83592 | 36720 ft | 411 kts | 220° |
| 2026-04-25 19:01 | 37.96767 | -75.85627 | 36925 ft | 411 kts | 220° |
| 2026-04-25 19:01 | 37.94416 | -75.87655 | 37134 ft | 410 kts | 220° |
| 2026-04-25 19:02 | 37.89802 | -75.91632 | 37469 ft | 410 kts | 221° |
| 2026-04-25 19:02 | 37.87506 | -75.93608 | 37612 ft | 410 kts | 221° |
| 2026-04-25 19:02 | 37.85209 | -75.95585 | 37736 ft | 411 kts | 221° |
| 2026-04-25 19:03 | 37.82119 | -75.98238 | 37877 ft | 412 kts | 221° |
| 2026-04-25 19:03 | 37.75835 | -76.03638 | 37875 ft | 415 kts | 221° |
| 2026-04-25 19:04 | 37.68724 | -76.09724 | 37864 ft | 415 kts | 221° |
| 2026-04-25 19:05 | 37.58815 | -76.17025 | 37840 ft | 424 kts | 211° |
| 2026-04-25 19:06 | 37.53318 | -76.19683 | 37843 ft | 430 kts | 205° |
| 2026-04-25 19:06 | 37.44847 | -76.23182 | 37839 ft | 429 kts | 205° |
| 2026-04-25 19:07 | 37.36368 | -76.26688 | 37830 ft | 430 kts | 205° |
| 2026-04-25 19:08 | 37.27868 | -76.30200 | 37831 ft | 430 kts | 205° |
| 2026-04-25 19:09 | 37.17447 | -76.34496 | 37835 ft | 431 kts | 205° |
| 2026-04-25 19:10 | 37.07966 | -76.38393 | 37834 ft | 430 kts | 205° |
| 2026-04-25 19:10 | 37.02296 | -76.40720 | 37831 ft | 431 kts | 205° |
| 2026-04-25 19:11 | 36.96563 | -76.43068 | 37827 ft | 433 kts | 205° |
| 2026-04-25 19:11 | 36.90881 | -76.45391 | 37823 ft | 432 kts | 205° |
| 2026-04-25 19:12 | 36.85175 | -76.47718 | 37824 ft | 431 kts | 205° |
| 2026-04-25 19:12 | 36.79442 | -76.50056 | 37820 ft | 432 kts | 205° |
| 2026-04-25 19:13 | 36.73743 | -76.52377 | 37817 ft | 433 kts | 205° |
| 2026-04-25 19:13 | 36.68039 | -76.54694 | 37814 ft | 432 kts | 205° |
| 2026-04-25 19:14 | 36.62297 | -76.57024 | 37810 ft | 433 kts | 205° |
| 2026-04-25 19:14 | 36.56589 | -76.59338 | 37808 ft | 434 kts | 205° |
| 2026-04-25 19:15 | 36.50841 | -76.61662 | 37794 ft | 434 kts | 204° |
| 2026-04-25 19:15 | 36.45117 | -76.63972 | 37789 ft | 434 kts | 205° |
| 2026-04-25 19:16 | 36.39397 | -76.66278 | 37785 ft | 433 kts | 204° |
| 2026-04-25 19:16 | 36.33659 | -76.68589 | 37785 ft | 434 kts | 204° |
| 2026-04-25 19:17 | 36.27905 | -76.70900 | 37784 ft | 435 kts | 204° |
| 2026-04-25 19:17 | 36.22149 | -76.73210 | 37788 ft | 436 kts | 204° |
| 2026-04-25 19:18 | 36.16389 | -76.75520 | 37789 ft | 435 kts | 203° |
| 2026-04-25 19:18 | 36.10665 | -76.77808 | 37796 ft | 434 kts | 203° |
| 2026-04-25 19:19 | 36.04920 | -76.80103 | 37805 ft | 435 kts | 203° |
| 2026-04-25 19:19 | 35.99138 | -76.82410 | 37805 ft | 437 kts | 203° |
| 2026-04-25 19:20 | 35.93396 | -76.84725 | 37800 ft | 435 kts | 205° |
| 2026-04-25 19:20 | 35.87816 | -76.87617 | 37803 ft | 431 kts | 212° |
| 2026-04-25 19:21 | 35.82484 | -76.90910 | 37805 ft | 430 kts | 212° |
| 2026-04-25 19:21 | 35.74463 | -76.95858 | 37803 ft | 429 kts | 212° |
| 2026-04-25 19:22 | 35.69124 | -76.99139 | 37810 ft | 431 kts | 212° |
| 2026-04-25 19:23 | 35.61092 | -77.04066 | 37819 ft | 431 kts | 212° |
| 2026-04-25 19:23 | 35.53031 | -77.09002 | 37823 ft | 432 kts | 212° |
| 2026-04-25 19:24 | 35.47673 | -77.12275 | 37823 ft | 431 kts | 211° |
| 2026-04-25 19:25 | 35.36977 | -77.18793 | 37817 ft | 432 kts | 211° |
| 2026-04-25 19:25 | 35.31591 | -77.22067 | 37820 ft | 432 kts | 212° |
| 2026-04-25 19:26 | 35.26178 | -77.25356 | 37826 ft | 432 kts | 211° |
| 2026-04-25 19:26 | 35.20824 | -77.28601 | 37825 ft | 432 kts | 211° |
| 2026-04-25 19:27 | 35.17229 | -77.30778 | 37834 ft | 432 kts | 211° |
| 2026-04-25 19:27 | 35.10068 | -77.35104 | 37830 ft | 432 kts | 211° |
| 2026-04-25 19:28 | 35.04682 | -77.38355 | 37829 ft | 433 kts | 211° |
| 2026-04-25 19:28 | 34.99276 | -77.41615 | 37839 ft | 433 kts | 211° |
| 2026-04-25 19:29 | 34.93884 | -77.44859 | 37837 ft | 433 kts | 211° |
| 2026-04-25 19:29 | 34.88516 | -77.48086 | 37834 ft | 433 kts | 211° |
| 2026-04-25 19:30 | 34.83106 | -77.51332 | 37836 ft | 433 kts | 211° |
| 2026-04-25 19:30 | 34.77702 | -77.54567 | 37838 ft | 434 kts | 211° |
| 2026-04-25 19:31 | 34.72302 | -77.57802 | 37842 ft | 434 kts | 211° |
| 2026-04-25 19:31 | 34.66871 | -77.61043 | 37847 ft | 434 kts | 211° |
| 2026-04-25 19:32 | 34.61451 | -77.64274 | 37840 ft | 435 kts | 210° |
| 2026-04-25 19:32 | 34.57750 | -77.66224 | 37848 ft | 438 kts | 205° |
| 2026-04-25 19:33 | 34.49927 | -77.69067 | 37835 ft | 444 kts | 195° |
| 2026-04-25 19:33 | 34.43881 | -77.70596 | 37839 ft | 444 kts | 195° |
| 2026-04-25 19:34 | 34.37824 | -77.72124 | 37840 ft | 444 kts | 195° |
| 2026-04-25 19:34 | 34.31774 | -77.73657 | 37832 ft | 444 kts | 195° |
| 2026-04-25 19:35 | 34.25760 | -77.75183 | 37845 ft | 445 kts | 195° |
| 2026-04-25 19:35 | 34.19709 | -77.76717 | 37846 ft | 444 kts | 195° |
| 2026-04-25 19:36 | 34.13634 | -77.78256 | 37854 ft | 445 kts | 195° |
| 2026-04-25 19:36 | 34.07578 | -77.79785 | 37847 ft | 446 kts | 195° |
| 2026-04-25 19:37 | 34.01500 | -77.81321 | 37859 ft | 445 kts | 195° |
| 2026-04-25 19:37 | 33.95480 | -77.82837 | 37862 ft | 445 kts | 195° |
| 2026-04-25 19:38 | 33.89414 | -77.84361 | 37870 ft | 445 kts | 195° |
| 2026-04-25 19:38 | 33.83342 | -77.85886 | 37873 ft | 445 kts | 195° |
| 2026-04-25 19:39 | 33.77317 | -77.87563 | 37876 ft | 446 kts | 199° |
| 2026-04-25 19:39 | 33.71337 | -77.89597 | 37875 ft | 445 kts | 199° |
| 2026-04-25 19:40 | 33.65419 | -77.91612 | 37875 ft | 445 kts | 199° |
| 2026-04-25 19:40 | 33.59439 | -77.93642 | 37871 ft | 445 kts | 198° |
| 2026-04-25 19:41 | 33.53506 | -77.95651 | 37870 ft | 445 kts | 198° |
| 2026-04-25 19:41 | 33.49552 | -77.96989 | 37874 ft | 446 kts | 198° |
| 2026-04-25 19:42 | 33.41569 | -77.99685 | 37875 ft | 447 kts | 198° |
| 2026-04-25 19:42 | 33.35560 | -78.01709 | 37880 ft | 447 kts | 198° |
| 2026-04-25 19:43 | 33.29608 | -78.03713 | 37879 ft | 446 kts | 198° |
| 2026-04-25 19:43 | 33.23611 | -78.05730 | 37881 ft | 446 kts | 198° |
| 2026-04-25 19:44 | 33.17665 | -78.07726 | 37881 ft | 446 kts | 198° |
| 2026-04-25 19:44 | 33.11691 | -78.09727 | 37881 ft | 447 kts | 198° |
| 2026-04-25 19:45 | 33.05675 | -78.11742 | 37884 ft | 448 kts | 198° |
| 2026-04-25 19:45 | 32.99715 | -78.13734 | 37889 ft | 447 kts | 197° |
| 2026-04-25 19:46 | 32.93731 | -78.15730 | 37888 ft | 446 kts | 197° |
| 2026-04-25 19:46 | 32.87746 | -78.17725 | 37888 ft | 446 kts | 198° |
| 2026-04-25 19:47 | 32.81757 | -78.19717 | 37885 ft | 447 kts | 198° |
| 2026-04-25 19:47 | 32.75766 | -78.21709 | 37884 ft | 447 kts | 197° |
| 2026-04-25 19:48 | 32.69787 | -78.23694 | 37881 ft | 448 kts | 197° |
| 2026-04-25 19:48 | 32.63824 | -78.25671 | 37878 ft | 447 kts | 197° |
| 2026-04-25 19:49 | 32.59794 | -78.27005 | 37878 ft | 447 kts | 197° |
| 2026-04-25 19:49 | 32.51843 | -78.29633 | 37879 ft | 447 kts | 198° |
| 2026-04-25 19:50 | 32.42828 | -78.32607 | 37880 ft | 448 kts | 198° |
| 2026-04-25 19:51 | 32.36837 | -78.34583 | 37882 ft | 448 kts | 197° |
| 2026-04-25 19:51 | 32.30825 | -78.36559 | 37885 ft | 448 kts | 197° |
| 2026-04-25 19:52 | 32.24832 | -78.38528 | 37884 ft | 448 kts | 197° |
| 2026-04-25 19:52 | 32.18803 | -78.40507 | 37883 ft | 448 kts | 197° |
| 2026-04-25 19:53 | 32.12806 | -78.42471 | 37884 ft | 448 kts | 197° |
| 2026-04-25 19:53 | 32.06838 | -78.44422 | 37884 ft | 448 kts | 197° |
| 2026-04-25 19:54 | 32.00808 | -78.46393 | 37885 ft | 449 kts | 197° |
| 2026-04-25 19:54 | 31.94794 | -78.48354 | 37884 ft | 449 kts | 197° |
| 2026-04-25 19:55 | 31.88788 | -78.50313 | 37885 ft | 449 kts | 197° |
| 2026-04-25 19:55 | 31.82760 | -78.52273 | 37889 ft | 448 kts | 197° |
| 2026-04-25 19:56 | 31.76746 | -78.54227 | 37889 ft | 449 kts | 197° |
| 2026-04-25 19:56 | 31.70726 | -78.56179 | 37891 ft | 450 kts | 197° |
| 2026-04-25 19:57 | 31.64706 | -78.58131 | 37899 ft | 450 kts | 197° |
| 2026-04-25 19:57 | 31.58651 | -78.60090 | 37897 ft | 450 kts | 197° |
| 2026-04-25 19:58 | 31.52637 | -78.62051 | 37896 ft | 450 kts | 198° |
| 2026-04-25 19:58 | 31.46632 | -78.64114 | 37896 ft | 450 kts | 198° |
| 2026-04-25 19:59 | 31.40614 | -78.66187 | 37903 ft | 451 kts | 197° |
| 2026-04-25 19:59 | 31.34605 | -78.68246 | 37902 ft | 451 kts | 197° |
| 2026-04-25 20:00 | 31.28577 | -78.70305 | 37908 ft | 451 kts | 197° |
| 2026-04-25 20:00 | 31.22543 | -78.72362 | 37908 ft | 451 kts | 198° |
| 2026-04-25 20:01 | 31.13524 | -78.75435 | 37907 ft | 452 kts | 197° |
| 2026-04-25 20:01 | 31.07467 | -78.77494 | 37907 ft | 452 kts | 197° |
| 2026-04-25 20:02 | 31.01422 | -78.79546 | 37903 ft | 452 kts | 197° |
| 2026-04-25 20:02 | 30.95424 | -78.81580 | 37896 ft | 451 kts | 197° |
| 2026-04-25 20:03 | 30.89379 | -78.83625 | 37900 ft | 451 kts | 197° |
| 2026-04-25 20:03 | 30.83360 | -78.85661 | 37903 ft | 452 kts | 197° |
| 2026-04-25 20:04 | 30.77335 | -78.87696 | 37898 ft | 454 kts | 197° |
| 2026-04-25 20:04 | 30.71262 | -78.89744 | 37899 ft | 452 kts | 197° |
| 2026-04-25 20:05 | 30.65216 | -78.91781 | 37894 ft | 452 kts | 197° |
| 2026-04-25 20:05 | 30.59190 | -78.93808 | 37900 ft | 452 kts | 197° |
| 2026-04-25 20:06 | 30.53161 | -78.95832 | 37901 ft | 452 kts | 197° |
| 2026-04-25 20:06 | 30.47120 | -78.97859 | 37902 ft | 452 kts | 197° |
| 2026-04-25 20:07 | 30.41047 | -78.99808 | 37904 ft | 454 kts | 194° |
| 2026-04-25 20:07 | 30.34887 | -79.01430 | 37910 ft | 453 kts | 194° |
| 2026-04-25 20:08 | 30.28745 | -79.03033 | 37904 ft | 453 kts | 193° |
| 2026-04-25 20:08 | 30.22582 | -79.04645 | 37906 ft | 454 kts | 194° |
| 2026-04-25 20:09 | 30.16437 | -79.06252 | 37907 ft | 453 kts | 194° |
| 2026-04-25 20:09 | 30.10271 | -79.07861 | 37907 ft | 454 kts | 194° |
| 2026-04-25 20:10 | 30.04089 | -79.09474 | 37909 ft | 455 kts | 193° |
| 2026-04-25 20:10 | 29.97943 | -79.11075 | 37903 ft | 454 kts | 193° |
| 2026-04-25 20:11 | 29.91804 | -79.12670 | 37900 ft | 453 kts | 193° |
| 2026-04-25 20:11 | 29.85636 | -79.14272 | 37894 ft | 454 kts | 193° |
| 2026-04-25 20:12 | 29.79460 | -79.15865 | 37897 ft | 454 kts | 193° |
| 2026-04-25 20:12 | 29.75359 | -79.16912 | 37896 ft | 455 kts | 193° |
| 2026-04-25 20:13 | 29.70164 | -79.18235 | 37608 ft | 454 kts | 194° |
| 2026-04-25 20:13 | 29.67164 | -79.18998 | 37306 ft | 450 kts | 194° |
| 2026-04-25 20:13 | 29.64105 | -79.19776 | 36997 ft | 447 kts | 194° |
| 2026-04-25 20:13 | 29.61072 | -79.20548 | 36686 ft | 444 kts | 194° |
| 2026-04-25 20:14 | 29.58072 | -79.21310 | 36394 ft | 445 kts | 194° |
| 2026-04-25 20:14 | 29.55037 | -79.22082 | 36098 ft | 445 kts | 194° |
| 2026-04-25 20:14 | 29.52013 | -79.22852 | 35810 ft | 446 kts | 194° |
| 2026-04-25 20:14 | 29.49002 | -79.23617 | 35520 ft | 447 kts | 194° |
| 2026-04-25 20:15 | 29.45928 | -79.24396 | 35227 ft | 449 kts | 195° |
| 2026-04-25 20:15 | 29.42897 | -79.25164 | 34943 ft | 451 kts | 195° |
| 2026-04-25 20:15 | 29.39786 | -79.25954 | 34647 ft | 452 kts | 195° |
| 2026-04-25 20:15 | 29.36747 | -79.26725 | 34361 ft | 454 kts | 195° |
| 2026-04-25 20:16 | 29.33634 | -79.27514 | 34071 ft | 455 kts | 195° |
| 2026-04-25 20:16 | 29.30577 | -79.28288 | 33785 ft | 456 kts | 195° |
| 2026-04-25 20:16 | 29.27436 | -79.29082 | 33497 ft | 458 kts | 195° |
| 2026-04-25 20:16 | 29.24349 | -79.29862 | 33242 ft | 459 kts | 195° |
| 2026-04-25 20:17 | 29.21216 | -79.30655 | 32985 ft | 460 kts | 195° |
| 2026-04-25 20:17 | 29.18076 | -79.31448 | 32730 ft | 460 kts | 195° |
| 2026-04-25 20:17 | 29.14972 | -79.32231 | 32475 ft | 460 kts | 195° |
| 2026-04-25 20:17 | 29.11854 | -79.33016 | 32219 ft | 462 kts | 195° |
| 2026-04-25 20:18 | 29.08688 | -79.33815 | 31961 ft | 462 kts | 195° |
| 2026-04-25 20:18 | 29.05551 | -79.34604 | 31706 ft | 462 kts | 195° |
| 2026-04-25 20:18 | 29.02431 | -79.35389 | 31452 ft | 463 kts | 195° |
| 2026-04-25 20:18 | 28.99274 | -79.36183 | 31195 ft | 464 kts | 195° |
| 2026-04-25 20:19 | 28.96109 | -79.36977 | 30938 ft | 465 kts | 195° |
| 2026-04-25 20:19 | 28.92956 | -79.37769 | 30682 ft | 466 kts | 195° |
| 2026-04-25 20:19 | 28.89809 | -79.38560 | 30426 ft | 466 kts | 195° |
| 2026-04-25 20:19 | 28.86618 | -79.39360 | 30168 ft | 466 kts | 195° |
| 2026-04-25 20:20 | 28.83466 | -79.40151 | 29915 ft | 466 kts | 195° |
| 2026-04-25 20:20 | 28.80267 | -79.40951 | 29657 ft | 466 kts | 195° |
| 2026-04-25 20:20 | 28.77141 | -79.41736 | 29399 ft | 465 kts | 195° |
| 2026-04-25 20:20 | 28.73952 | -79.42533 | 29134 ft | 463 kts | 195° |
| 2026-04-25 20:21 | 28.70807 | -79.43319 | 28879 ft | 461 kts | 195° |
| 2026-04-25 20:21 | 28.67684 | -79.44099 | 28625 ft | 458 kts | 195° |
| 2026-04-25 20:21 | 28.64572 | -79.44877 | 28373 ft | 456 kts | 195° |
| 2026-04-25 20:21 | 28.61499 | -79.45643 | 28126 ft | 454 kts | 194° |
| 2026-04-25 20:22 | 28.58405 | -79.46415 | 27876 ft | 451 kts | 195° |
| 2026-04-25 20:22 | 28.57409 | -79.46663 | 27794 ft | 450 kts | 195° |
| 2026-04-25 20:22 | 28.52313 | -79.47932 | 27378 ft | 446 kts | 194° |
| 2026-04-25 20:22 | 28.49316 | -79.48679 | 27128 ft | 444 kts | 194° |
| 2026-04-25 20:23 | 28.46304 | -79.49428 | 26879 ft | 441 kts | 195° |
| 2026-04-25 20:23 | 28.43308 | -79.50173 | 26628 ft | 438 kts | 194° |
| 2026-04-25 20:23 | 28.40349 | -79.50910 | 26379 ft | 436 kts | 194° |
| 2026-04-25 20:23 | 28.37383 | -79.51647 | 26128 ft | 433 kts | 194° |
| 2026-04-25 20:24 | 28.34432 | -79.52379 | 25880 ft | 431 kts | 194° |
| 2026-04-25 20:24 | 28.31514 | -79.53103 | 25632 ft | 429 kts | 194° |
| 2026-04-25 20:24 | 28.28635 | -79.53836 | 25387 ft | 426 kts | 195° |
| 2026-04-25 20:24 | 28.25736 | -79.54623 | 25136 ft | 424 kts | 195° |
| 2026-04-25 20:25 | 28.22873 | -79.55412 | 24885 ft | 422 kts | 195° |
| 2026-04-25 20:25 | 28.20038 | -79.56194 | 24636 ft | 420 kts | 195° |
| 2026-04-25 20:25 | 28.17198 | -79.56972 | 24386 ft | 417 kts | 195° |
| 2026-04-25 20:25 | 28.14383 | -79.57741 | 24135 ft | 414 kts | 195° |
| 2026-04-25 20:26 | 28.11589 | -79.58501 | 23929 ft | 412 kts | 195° |
| 2026-04-25 20:26 | 28.08784 | -79.59264 | 23912 ft | 412 kts | 195° |
| 2026-04-25 20:26 | 28.06028 | -79.60014 | 23910 ft | 412 kts | 195° |
| 2026-04-25 20:26 | 28.03245 | -79.60769 | 23908 ft | 411 kts | 195° |
| 2026-04-25 20:27 | 28.00464 | -79.61523 | 23907 ft | 411 kts | 195° |
| 2026-04-25 20:27 | 27.97667 | -79.62283 | 23888 ft | 411 kts | 195° |
| 2026-04-25 20:27 | 27.94857 | -79.63045 | 23304 ft | 415 kts | 195° |
| 2026-04-25 20:27 | 27.92066 | -79.63802 | 22655 ft | 416 kts | 195° |
| 2026-04-25 20:28 | 27.89235 | -79.64568 | 22000 ft | 417 kts | 195° |
| 2026-04-25 20:28 | 27.86441 | -79.65322 | 21335 ft | 417 kts | 195° |
| 2026-04-25 20:28 | 27.83591 | -79.66093 | 20643 ft | 418 kts | 195° |
| 2026-04-25 20:28 | 27.80824 | -79.66838 | 19969 ft | 405 kts | 195° |
| 2026-04-25 20:29 | 27.78135 | -79.67564 | 19327 ft | 391 kts | 195° |
| 2026-04-25 20:29 | 27.75534 | -79.68264 | 18697 ft | 378 kts | 195° |
| 2026-04-25 20:29 | 27.73023 | -79.68941 | 18074 ft | 368 kts | 196° |
| 2026-04-25 20:29 | 27.70546 | -79.69611 | 17458 ft | 360 kts | 196° |
| 2026-04-25 20:30 | 27.68140 | -79.70262 | 16871 ft | 356 kts | 196° |
| 2026-04-25 20:30 | 27.65715 | -79.70918 | 16295 ft | 357 kts | 196° |
| 2026-04-25 20:30 | 27.63301 | -79.71572 | 15741 ft | 359 kts | 196° |
| 2026-04-25 20:30 | 27.60871 | -79.72228 | 15309 ft | 357 kts | 196° |
| 2026-04-25 20:31 | 27.58451 | -79.72880 | 14881 ft | 355 kts | 196° |
| 2026-04-25 20:31 | 27.56067 | -79.73522 | 14458 ft | 354 kts | 196° |
| 2026-04-25 20:31 | 27.53682 | -79.74163 | 14023 ft | 353 kts | 196° |
| 2026-04-25 20:31 | 27.51283 | -79.74808 | 13579 ft | 353 kts | 196° |
| 2026-04-25 20:32 | 27.48879 | -79.75453 | 13136 ft | 352 kts | 196° |
| 2026-04-25 20:32 | 27.46521 | -79.76087 | 12712 ft | 351 kts | 196° |
| 2026-04-25 20:32 | 27.44155 | -79.76723 | 12296 ft | 349 kts | 196° |
| 2026-04-25 20:32 | 27.41808 | -79.77353 | 11882 ft | 347 kts | 195° |
| 2026-04-25 20:33 | 27.39469 | -79.77979 | 11465 ft | 345 kts | 195° |
| 2026-04-25 20:33 | 27.37142 | -79.78604 | 11050 ft | 342 kts | 195° |
| 2026-04-25 20:33 | 27.34832 | -79.79224 | 10638 ft | 340 kts | 195° |
| 2026-04-25 20:33 | 27.34056 | -79.79431 | 10500 ft | 339 kts | 195° |
| 2026-04-25 20:34 | 27.30307 | -79.80434 | 10155 ft | 322 kts | 195° |
| 2026-04-25 20:34 | 27.28154 | -79.81008 | 10039 ft | 310 kts | 195° |
| 2026-04-25 20:34 | 27.26105 | -79.81555 | 9905 ft | 299 kts | 195° |
| 2026-04-25 20:34 | 27.24093 | -79.82095 | 9545 ft | 297 kts | 195° |
| 2026-04-25 20:35 | 27.22069 | -79.82658 | 9177 ft | 295 kts | 198° |
| 2026-04-25 20:35 | 27.20160 | -79.83436 | 8825 ft | 291 kts | 206° |
| 2026-04-25 20:35 | 27.18355 | -79.84444 | 8521 ft | 287 kts | 210° |
| 2026-04-25 20:35 | 27.16592 | -79.85502 | 8276 ft | 285 kts | 210° |
| 2026-04-25 20:36 | 27.14864 | -79.86546 | 8035 ft | 284 kts | 210° |
| 2026-04-25 20:36 | 27.13117 | -79.87598 | 7789 ft | 283 kts | 210° |
| 2026-04-25 20:36 | 27.11378 | -79.88640 | 7544 ft | 282 kts | 210° |
| 2026-04-25 20:36 | 27.09654 | -79.89668 | 7298 ft | 280 kts | 210° |
| 2026-04-25 20:37 | 27.07924 | -79.90698 | 7048 ft | 279 kts | 210° |
| 2026-04-25 20:37 | 27.06225 | -79.91709 | 6810 ft | 278 kts | 209° |
| 2026-04-25 20:37 | 27.04523 | -79.92722 | 6533 ft | 274 kts | 210° |
| 2026-04-25 20:37 | 27.02831 | -79.93728 | 6359 ft | 275 kts | 209° |
| 2026-04-25 20:38 | 27.01158 | -79.94721 | 6178 ft | 274 kts | 210° |
| 2026-04-25 20:38 | 26.99448 | -79.95737 | 5994 ft | 273 kts | 210° |
| 2026-04-25 20:38 | 26.97784 | -79.96727 | 5815 ft | 273 kts | 209° |
| 2026-04-25 20:38 | 26.96095 | -79.97742 | 5652 ft | 273 kts | 211° |
| 2026-04-25 20:39 | 26.94504 | -79.98874 | 5469 ft | 272 kts | 217° |
| 2026-04-25 20:39 | 26.92978 | -80.00158 | 5287 ft | 272 kts | 218° |
| 2026-04-25 20:39 | 26.91483 | -80.01450 | 5110 ft | 272 kts | 218° |
| 2026-04-25 20:39 | 26.90974 | -80.01891 | 5043 ft | 271 kts | 218° |
| 2026-04-25 20:40 | 26.88482 | -80.04047 | 4792 ft | 271 kts | 218° |
| 2026-04-25 20:40 | 26.86987 | -80.05337 | 4618 ft | 270 kts | 218° |
| 2026-04-25 20:40 | 26.85507 | -80.06610 | 4444 ft | 270 kts | 218° |
| 2026-04-25 20:40 | 26.84001 | -80.07909 | 4295 ft | 271 kts | 218° |
| 2026-04-25 20:41 | 26.82531 | -80.09187 | 4089 ft | 264 kts | 218° |
| 2026-04-25 20:41 | 26.81127 | -80.10460 | 3932 ft | 254 kts | 225° |
| 2026-04-25 20:41 | 26.80314 | -80.12095 | 3899 ft | 238 kts | 259° |
| 2026-04-25 20:41 | 26.80172 | -80.13893 | 3918 ft | 229 kts | 269° |
| 2026-04-25 20:42 | 26.80152 | -80.15694 | 3916 ft | 229 kts | 269° |
| 2026-04-25 20:42 | 26.80106 | -80.17458 | 3924 ft | 229 kts | 268° |
| 2026-04-25 20:42 | 26.80022 | -80.19233 | 3920 ft | 229 kts | 266° |
| 2026-04-25 20:42 | 26.79902 | -80.21008 | 3908 ft | 229 kts | 264° |
| 2026-04-25 20:43 | 26.79735 | -80.22784 | 3915 ft | 229 kts | 263° |
| 2026-04-25 20:43 | 26.79557 | -80.24547 | 3917 ft | 229 kts | 263° |
| 2026-04-25 20:43 | 26.79375 | -80.26321 | 3928 ft | 229 kts | 263° |
| 2026-04-25 20:43 | 26.79193 | -80.28098 | 3935 ft | 229 kts | 263° |
| 2026-04-25 20:44 | 26.79014 | -80.29860 | 3846 ft | 229 kts | 263° |
| 2026-04-25 20:44 | 26.78835 | -80.31635 | 3721 ft | 228 kts | 263° |
| 2026-04-25 20:44 | 26.78658 | -80.33393 | 3606 ft | 228 kts | 263° |
| 2026-04-25 20:44 | 26.78480 | -80.35154 | 3486 ft | 228 kts | 263° |
| 2026-04-25 20:45 | 26.78300 | -80.36932 | 3369 ft | 229 kts | 263° |
| 2026-04-25 20:45 | 26.78123 | -80.38686 | 3251 ft | 229 kts | 263° |
| 2026-04-25 20:45 | 26.77813 | -80.40470 | 3132 ft | 241 kts | 245° |
| 2026-04-25 20:45 | 26.76831 | -80.41899 | 2985 ft | 230 kts | 212° |
| 2026-04-25 20:46 | 26.75394 | -80.42477 | 2899 ft | 212 kts | 178° |
| 2026-04-25 20:46 | 26.74047 | -80.42047 | 2952 ft | 194 kts | 143° |
| 2026-04-25 20:46 | 26.73195 | -80.40995 | 2936 ft | 176 kts | 126° |
| 2026-04-25 20:46 | 26.72491 | -80.39898 | 2917 ft | 174 kts | 124° |
| 2026-04-25 20:47 | 26.71788 | -80.38783 | 2909 ft | 176 kts | 124° |
| 2026-04-25 20:47 | 26.71075 | -80.37653 | 2906 ft | 176 kts | 124° |
| 2026-04-25 20:47 | 26.70373 | -80.36542 | 2903 ft | 176 kts | 124° |
| 2026-04-25 20:47 | 26.69716 | -80.35386 | 2901 ft | 176 kts | 115° |
| 2026-04-25 20:48 | 26.69334 | -80.34090 | 2901 ft | 177 kts | 101° |
| 2026-04-25 20:48 | 26.69208 | -80.32717 | 2903 ft | 177 kts | 92° |
| 2026-04-25 20:48 | 26.69185 | -80.31384 | 2882 ft | 163 kts | 91° |
| 2026-04-25 20:48 | 26.69167 | -80.30179 | 2875 ft | 152 kts | 92° |
| 2026-04-25 20:49 | 26.69135 | -80.29004 | 2904 ft | 152 kts | 92° |
| 2026-04-25 20:49 | 26.69092 | -80.27810 | 2863 ft | 153 kts | 93° |
| 2026-04-25 20:49 | 26.69041 | -80.26638 | 2707 ft | 151 kts | 93° |
| 2026-04-25 20:49 | 26.68988 | -80.25487 | 2517 ft | 141 kts | 93° |
| 2026-04-25 20:50 | 26.68939 | -80.24444 | 2322 ft | 135 kts | 94° |
| 2026-04-25 20:50 | 26.68890 | -80.23406 | 2151 ft | 134 kts | 94° |
| 2026-04-25 20:50 | 26.68841 | -80.22366 | 1987 ft | 133 kts | 94° |
| 2026-04-25 20:50 | 26.68792 | -80.21322 | 1818 ft | 133 kts | 94° |
| 2026-04-25 20:51 | 26.68745 | -80.20290 | 1649 ft | 133 kts | 94° |
| 2026-04-25 20:51 | 26.68698 | -80.19267 | 1483 ft | 133 kts | 94° |
| 2026-04-25 20:51 | 26.68636 | -80.18237 | 1321 ft | 132 kts | 95° |
| 2026-04-25 20:51 | 26.68593 | -80.17217 | 1163 ft | 132 kts | 92° |
| 2026-04-25 20:52 | 26.68555 | -80.16195 | 1004 ft | 131 kts | 93° |
| 2026-04-25 20:52 | 26.68530 | -80.15507 | 902 ft | 132 kts | 93° |
| 2026-04-25 20:52 | 26.68471 | -80.14151 | 653 ft | 131 kts | 94° |
| 2026-04-25 20:52 | 26.68431 | -80.13143 | 481 ft | 130 kts | 95° |
| 2026-04-25 20:53 | 26.68381 | -80.12132 | 337 ft | 130 kts | 94° |
| 2026-04-25 20:53 | 26.68341 | -80.11118 | 158 ft | 128 kts | 94° |
| 2026-04-25 20:53 | 26.68292 | -80.10133 | 28 ft | 124 kts | 92° |
| 2026-04-25 20:53 | 26.68253 | -80.09304 | 18 ft | 83 kts | 92° |
| 2026-04-25 20:54 | 26.68235 | -80.08849 | 18 ft | 31 kts | 94° |
| 2026-04-25 20:54 | 26.68264 | -80.08665 | 18 ft | 13 kts | 50° |
| 2026-04-25 20:54 | 26.68332 | -80.08627 | 18 ft | 11 kts | 4° |
| 2026-04-25 20:54 | 26.68366 | -80.08624 | 18 ft | 0 kts | 1° |
| 2026-04-25 20:55 | 26.68373 | -80.08624 | 18 ft | 2 kts | 1° |
| 2026-04-25 20:55 | 26.68402 | -80.08630 | 18 ft | 6 kts | 330° |
| 2026-04-25 20:55 | 26.68434 | -80.08710 | 18 ft | 15 kts | 270° |
| 2026-04-25 20:55 | 26.68440 | -80.08848 | 18 ft | 13 kts | 275° |
| 2026-04-25 20:56 | 26.68496 | -80.08884 | 18 ft | 8 kts | 349° |
| 2026-04-25 20:56 | 26.68522 | -80.08891 | 18 ft | 1 kts | 346° |
| 2026-04-25 20:56 | 26.68525 | -80.08892 | 18 ft | 0 kts | 346° |